Colbert, WA

5:58 PM PDT on August 28, 2014 (GMT -0700)
Colbert - Summerwood | Change Station
CLOSE
Current Station
Personal Weather Station
Location: Colbert, WA
Elevation: 1811 ft
Nearby Weather Stations

Elev 1811 ft 47.82 °N, 117.36 °W | Updated 6 minutes ago

Partly Cloudy
Partly Cloudy
82.0 °F
Feels Like 81 °F
N
-
Wind Variable Wind from North

Today
High -- | Low -- °F
--% Chance of Precip.
Yesterday
High -- | Low -- °F
Precip. -- in
6:02 AM 7:37 PM
Waxing Crescent, 11% visible
Pressure 29.88 in
Visibility 10.0 miles
Clouds Few 9500 ft
Heat Index 81 °F
Dew Point 50 °F
Humidity 33%
Rainfall -999.00 in
Snow Depth 1 in
UV 1 out of 12
Pollen 7.70 out of 12
PM2.5 Good
Flu Activity Not available.
METAR KDEW 290053Z AUTO 25008G17KT 10SM FEW095 29/04 A2992 RMK AO2 SLP116 T02890044

More Conditions Fewer Conditions

Pressure 29.88 in
Visibility 10.0 miles
Clouds Few 9500 ft
Heat Index 81 °F
Dew Point 50 °F
Humidity 33%
Rainfall -999.00 in
Snow Depth 1 in
UV 1 out of 12
Pollen 7.70 out of 12
PM2.5 Good
Flu Activity Not available.
METAR KDEW 290053Z AUTO 25008G17KT 10SM FEW095 29/04 A2992 RMK AO2 SLP116 T02890044

More Conditions Fewer Conditions

10-Day Weather Forecast

Almanac

Astronomy

Aug. 28, 2014 Rise Set
Actual Time 6:02 AM PDT 7:37 PM PDT
Civil Twilight 5:29 AM PDT 8:10 PM PDT
Nautical Twilight 4:50 AM PDT 8:49 PM PDT
Astronomical Twilight 4:07 AM PDT 9:32 PM PDT
Moon 9:15 AM PDT (8/28) 8:46 PM PDT (8/28)
Length of Visible Light 14h 40m
Length of Day
13h 35m
Tomorrow will be 3m 18s shorter.
Waxing Crescent, 11% of the Moon is Illuminated
Today
Waxing Crescent
Sep 2
First Quarter
Sep 8
Full
Sep 15
Last Quarter
Sep 24
New

Today's Extremes

State Highs State Lows

Community

WunderPhotos

Upload Photos

1,748,112 photos uploaded!

Nearby

Air Quality

  Air Quality AQ Index Pollutant
Yesterday Good
PM10
Yesterday Good
OZONE
Current Good
PM2.5
Thursday Good
PM10
Thursday Good
OZONE
Friday Good
PM10
Friday Good
OZONE

Snow Depth

Station Depth Elevation
Quartz Peak 1 in 4700 ft
Moses Mountain 1 in 5300 ft
Spruce Springs 0 in 5700 ft
Trough 0 in 5300 ft
Upper Wheeler 0 in 4400 ft

Earthquake Activity

City Distance Mag. Time & Date
No recent earthquake activity has been reported nearby.
Minimum magnitude displayed is 2.5.

Coastal Water Temperatures

Place Temperature
No Stations Reporting

Nearby Weather Stations